Terminal Aerodrome Forecast
Issued by NWS

Home | Current Version | Previous Version | Text Only | Print | Product List | Glossary On
Versions: 1 2 3 4 5 6 7 8 9 10 11 12 13 14 15 16 17 18
000
FTUS44 KLZK 240500
TAFHRO
TAF
KHRO 240539Z 2406/2506 13008KT P6SM OVC250
     FM241400 16012G20KT P6SM VCSH OVC100
     FM241800 19014G24KT P6SM -SHRA VCTS OVC025CB PROB30 2418/2424
      4SM -TSRA BR OVC015CB
     FM250300 28007KT P6SM SCT040=

USA.gov is the U.S. government's official web portal to all federal, state and local government web resources and services.